Wetterdaten: Woche 12.11.07 - 18.11.07 (KW46)
Datum Zeit Temperatur Luftfeuchte Luftdruck Niederschlag Wind Richtung Sonnenschein Solar Taupunkt Windchill Windben
12.11.2007 00:00 6.5 C 92 % 1014.6 hPa 2.0 l/m 10.9 km/h (2 Bft) W 0.00 h 0 W/m 5.2 C 4.3 C 16.8 km/h (3 Bft)
12.11.2007 01:00 6.0 C 92 % 1015.2 hPa 0.0 l/m 4.4 km/h (1 Bft) W-NW 0.00 h 0 W/m 4.8 C 5.4 C 7.4 km/h (2 Bft)
12.11.2007 02:00 5.8 C 93 % 1016.0 hPa 0.0 l/m 2.4 km/h (1 Bft) W-NW 0.00 h 0 W/m 4.7 C 5.5 C 4.6 km/h (1 Bft)
12.11.2007 03:00 5.0 C 92 % 1016.6 hPa 0.0 l/m 3.2 km/h (1 Bft) NW 0.00 h 0 W/m 3.8 C 4.8 C 5.9 km/h (2 Bft)
12.11.2007 04:00 4.7 C 89 % 1017.1 hPa 0.2 l/m 11.1 km/h (2 Bft) W 0.00 h 0 W/m 3.0 C 2.1 C 16.8 km/h (3 Bft)
12.11.2007 05:00 4.6 C 85 % 1018.0 hPa 0.0 l/m 11.6 km/h (2 Bft) W 0.00 h 0 W/m 2.3 C 1.8 C 17.7 km/h (3 Bft)
12.11.2007 06:00 4.4 C 86 % 1018.7 hPa 0.0 l/m 13.0 km/h (3 Bft) W 0.00 h 0 W/m 2.4 C 1.4 C 19.7 km/h (3 Bft)
12.11.2007 07:00 3.9 C 87 % 1019.4 hPa 0.0 l/m 8.7 km/h (2 Bft) W 0.00 h 11 W/m 1.9 C 1.8 C 13.5 km/h (3 Bft)
12.11.2007 08:00 3.4 C 89 % 1020.4 hPa 0.0 l/m 1.7 km/h (1 Bft) W 0.17 h 49 W/m 1.6 C 3.2 C 3.8 km/h (1 Bft)
12.11.2007 09:00 4.8 C 78 % 1021.0 hPa 0.0 l/m 3.9 km/h (1 Bft) W 0.97 h 209 W/m 1.3 C 4.1 C 6.3 km/h (2 Bft)
12.11.2007 10:00 5.6 C 70 % 1021.4 hPa 0.0 l/m 9.1 km/h (2 Bft) W-NW 0.47 h 184 W/m 0.5 C 3.7 C 13.8 km/h (3 Bft)
12.11.2007 11:00 6.5 C 61 % 1021.7 hPa 0.0 l/m 12.1 km/h (2 Bft) W 0.98 h 413 W/m -0.4 C 4.2 C 18.3 km/h (3 Bft)
12.11.2007 12:00 7.3 C 56 % 1021.6 hPa 0.0 l/m 11.5 km/h (2 Bft) W 0.85 h 426 W/m -1.0 C 5.2 C 17.7 km/h (3 Bft)
12.11.2007 13:00 7.3 C 52 % 1021.5 hPa 0.0 l/m 11.3 km/h (2 Bft) W 0.83 h 314 W/m -2.0 C 5.2 C 16.8 km/h (3 Bft)
12.11.2007 14:00 7.3 C 56 % 1021.3 hPa 0.0 l/m 13.4 km/h (3 Bft) W 1.00 h 264 W/m -0.8 C 4.9 C 19.1 km/h (3 Bft)
12.11.2007 15:00 6.9 C 58 % 1021.4 hPa 0.0 l/m 9.1 km/h (2 Bft) W 0.68 h 135 W/m -0.9 C 5.1 C 13.6 km/h (3 Bft)
12.11.2007 16:00 6.0 C 62 % 1021.6 hPa 0.0 l/m 6.7 km/h (2 Bft) W-NW 0.18 h 30 W/m -0.7 C 4.7 C 9.8 km/h (2 Bft)
12.11.2007 17:00 4.6 C 73 % 1022.1 hPa 0.2 l/m 8.4 km/h (2 Bft) W-NW 0.00 h 0 W/m 0.2 C 2.8 C 12.9 km/h (3 Bft)
12.11.2007 18:00 3.1 C 88 % 1022.9 hPa 0.0 l/m 1.5 km/h (1 Bft) W 0.00 h 0 W/m 1.2 C 3.1 C 3.2 km/h (1 Bft)
12.11.2007 19:00 2.1 C 90 % 1023.1 hPa 0.0 l/m 2.0 km/h (1 Bft) SO 0.00 h 0 W/m 0.6 C 2.0 C 3.4 km/h (1 Bft)
12.11.2007 20:00 1.8 C 89 % 1023.4 hPa 0.0 l/m 1.4 km/h (1 Bft) O-NO 0.00 h 0 W/m 0.2 C 1.8 C 2.9 km/h (1 Bft)
12.11.2007 21:00 1.0 C 91 % 1023.6 hPa 0.0 l/m 1.7 km/h (1 Bft) O 0.00 h 0 W/m -0.4 C 0.8 C 2.8 km/h (1 Bft)
12.11.2007 22:00 0.9 C 91 % 1023.5 hPa 0.0 l/m 2.0 km/h (1 Bft) O 0.00 h 0 W/m -0.3 C 0.8 C 3.0 km/h (1 Bft)
12.11.2007 23:00 1.3 C 91 % 1023.3 hPa 0.0 l/m 0.4 km/h (0 Bft) O 0.00 h 0 W/m 0.0 C 1.3 C 1.2 km/h (1 Bft)
13.11.2007 00:00 1.3 C 91 % 1022.9 hPa 0.0 l/m 0.3 km/h (0 Bft) O 0.00 h 0 W/m -0.1 C 1.3 C 1.0 km/h (0 Bft)
13.11.2007 01:00 1.2 C 92 % 1022.8 hPa 0.0 l/m 0.3 km/h (0 Bft) O 0.00 h 0 W/m -0.0 C 1.2 C 1.1 km/h (0 Bft)
13.11.2007 02:00 1.3 C 90 % 1022.8 hPa 0.0 l/m 0.5 km/h (0 Bft) O 0.00 h 0 W/m -0.2 C 1.3 C 1.2 km/h (1 Bft)
13.11.2007 03:00 1.1 C 89 % 1022.5 hPa 0.0 l/m 1.3 km/h (1 Bft) S-SO 0.00 h 0 W/m -0.5 C 1.0 C 2.7 km/h (1 Bft)
13.11.2007 04:00 0.7 C 90 % 1022.2 hPa 0.0 l/m 3.0 km/h (1 Bft) S-SO 0.00 h 0 W/m -0.8 C 0.2 C 5.5 km/h (1 Bft)
13.11.2007 05:00 0.7 C 90 % 1022.2 hPa 0.0 l/m 1.3 km/h (1 Bft) S-SO 0.00 h 0 W/m -0.7 C 0.7 C 3.6 km/h (1 Bft)
13.11.2007 06:00 0.9 C 89 % 1022.1 hPa 0.0 l/m 0.9 km/h (0 Bft) S-SW 0.00 h 0 W/m -0.7 C 0.9 C 2.8 km/h (1 Bft)
13.11.2007 07:00 0.9 C 89 % 1021.9 hPa 0.0 l/m 1.1 km/h (1 Bft) SW 0.12 h 14 W/m -0.7 C 0.9 C 3.2 km/h (1 Bft)
13.11.2007 08:00 1.0 C 89 % 1021.8 hPa 0.0 l/m 1.7 km/h (1 Bft) SW 0.00 h 47 W/m -0.7 C 0.9 C 4.3 km/h (1 Bft)
13.11.2007 09:00 1.8 C 86 % 1021.5 hPa 0.0 l/m 2.9 km/h (1 Bft) SW 0.60 h 155 W/m -0.4 C 1.5 C 6.4 km/h (2 Bft)
13.11.2007 10:00 3.2 C 80 % 1021.0 hPa 0.0 l/m 3.0 km/h (1 Bft) SW 0.13 h 149 W/m 0.1 C 2.9 C 5.8 km/h (2 Bft)
13.11.2007 11:00 4.3 C 76 % 1020.3 hPa 0.0 l/m 2.2 km/h (1 Bft) W-SW 0.25 h 180 W/m 0.4 C 4.2 C 5.0 km/h (1 Bft)
13.11.2007 12:00 5.4 C 69 % 1019.1 hPa 0.0 l/m 2.8 km/h (1 Bft) W-SW 0.53 h 226 W/m 0.2 C 5.2 C 5.6 km/h (1 Bft)
13.11.2007 13:00 5.0 C 70 % 1017.8 hPa 0.0 l/m 3.8 km/h (1 Bft) S-SO 0.05 h 134 W/m 0.0 C 4.6 C 7.6 km/h (2 Bft)
13.11.2007 14:00 5.5 C 70 % 1016.6 hPa 0.0 l/m 4.7 km/h (1 Bft) S 0.55 h 216 W/m 0.4 C 4.8 C 9.5 km/h (2 Bft)
13.11.2007 15:00 4.9 C 71 % 1015.6 hPa 0.0 l/m 3.9 km/h (1 Bft) S 0.02 h 53 W/m 0.1 C 4.4 C 8.1 km/h (2 Bft)
13.11.2007 16:00 4.3 C 73 % 1014.5 hPa 0.0 l/m 3.9 km/h (1 Bft) W-SW 0.00 h 10 W/m -0.1 C 3.8 C 7.3 km/h (2 Bft)
13.11.2007 17:00 3.9 C 75 % 1013.5 hPa 0.0 l/m 2.7 km/h (1 Bft) W-SW 0.00 h 0 W/m -0.1 C 3.8 C 5.4 km/h (1 Bft)
13.11.2007 18:00 3.7 C 78 % 1012.2 hPa 0.0 l/m 1.6 km/h (1 Bft) S 0.00 h 0 W/m 0.2 C 3.7 C 4.0 km/h (1 Bft)
13.11.2007 19:00 3.9 C 76 % 1011.1 hPa 0.0 l/m 4.5 km/h (1 Bft) W-SW 0.00 h 0 W/m 0.1 C 3.1 C 8.4 km/h (2 Bft)
13.11.2007 20:00 2.8 C 86 % 1010.7 hPa 1.6 l/m 8.9 km/h (2 Bft) W-SW 0.00 h 0 W/m 0.6 C 0.5 C 14.6 km/h (3 Bft)
13.11.2007 21:00 1.3 C 95 % 1009.9 hPa 0.2 l/m 2.6 km/h (1 Bft) S-SO 0.00 h 0 W/m 0.6 C 1.1 C 4.5 km/h (1 Bft)
13.11.2007 22:00 1.4 C 96 % 1008.5 hPa 0.2 l/m 1.7 km/h (1 Bft) S-SO 0.00 h 0 W/m 0.8 C 1.3 C 3.5 km/h (1 Bft)
13.11.2007 23:00 1.8 C 95 % 1007.4 hPa 0.4 l/m 1.7 km/h (1 Bft) SW 0.00 h 0 W/m 1.0 C 1.6 C 3.8 km/h (1 Bft)
14.11.2007 00:00 1.4 C 95 % 1006.6 hPa 2.0 l/m 1.6 km/h (1 Bft) W-SW 0.00 h 0 W/m 0.6 C 1.2 C 3.9 km/h (1 Bft)
14.11.2007 01:00 1.1 C 97 % 1005.8 hPa 1.4 l/m 1.6 km/h (1 Bft) SW 0.00 h 0 W/m 0.6 C 1.0 C 3.3 km/h (1 Bft)
14.11.2007 02:00 1.3 C 97 % 1004.8 hPa 0.8 l/m 4.0 km/h (1 Bft) S-SW 0.00 h 0 W/m 0.8 C 0.5 C 7.4 km/h (2 Bft)
14.11.2007 03:00 1.7 C 97 % 1004.2 hPa 0.4 l/m 3.1 km/h (1 Bft) S-SW 0.00 h 0 W/m 1.3 C 1.4 C 6.6 km/h (2 Bft)
14.11.2007 04:00 1.8 C 97 % 1003.9 hPa 0.4 l/m 4.2 km/h (1 Bft) S-SO 0.00 h 0 W/m 1.3 C 1.0 C 7.3 km/h (2 Bft)
14.11.2007 05:00 1.9 C 97 % 1003.9 hPa 0.2 l/m 3.7 km/h (1 Bft) S-SO 0.00 h 0 W/m 1.5 C 1.1 C 6.9 km/h (2 Bft)
14.11.2007 06:00 2.0 C 97 % 1003.9 hPa 0.4 l/m 4.5 km/h (1 Bft) S 0.00 h 0 W/m 1.6 C 1.1 C 8.0 km/h (2 Bft)
14.11.2007 07:00 2.1 C 97 % 1004.0 hPa 0.2 l/m 4.1 km/h (1 Bft) S 0.00 h 0 W/m 1.6 C 1.3 C 7.8 km/h (2 Bft)
14.11.2007 08:00 2.5 C 97 % 1004.6 hPa 0.0 l/m 3.4 km/h (1 Bft) S 0.00 h 25 W/m 2.0 C 2.0 C 6.9 km/h (2 Bft)
14.11.2007 09:00 2.9 C 97 % 1004.9 hPa 0.0 l/m 3.3 km/h (1 Bft) S 0.00 h 29 W/m 2.4 C 2.6 C 6.6 km/h (2 Bft)
14.11.2007 10:00 3.4 C 97 % 1005.5 hPa 0.2 l/m 2.0 km/h (1 Bft) W 0.00 h 47 W/m 2.9 C 3.2 C 4.1 km/h (1 Bft)
14.11.2007 11:00 3.9 C 96 % 1005.9 hPa 0.0 l/m 1.9 km/h (1 Bft) NW 0.00 h 102 W/m 3.3 C 3.7 C 3.9 km/h (1 Bft)
14.11.2007 12:00 4.5 C 88 % 1006.5 hPa 0.0 l/m 5.0 km/h (1 Bft) NW 0.00 h 152 W/m 2.7 C 3.5 C 8.3 km/h (2 Bft)
14.11.2007 13:00 4.3 C 78 % 1007.6 hPa 0.0 l/m 6.8 km/h (2 Bft) NW 0.00 h 96 W/m 0.8 C 2.8 C 10.8 km/h (2 Bft)
14.11.2007 14:00 4.2 C 74 % 1008.6 hPa 0.0 l/m 8.1 km/h (2 Bft) N-NW 0.00 h 74 W/m -0.1 C 2.4 C 13.0 km/h (3 Bft)
14.11.2007 15:00 3.9 C 74 % 1009.7 hPa 0.0 l/m 1.1 km/h (0 Bft) NO 0.00 h 35 W/m -0.4 C 3.8 C 3.1 km/h (1 Bft)
14.11.2007 16:00 3.4 C 81 % 1010.4 hPa 0.0 l/m 3.0 km/h (1 Bft) W 0.00 h 14 W/m 0.4 C 2.9 C 5.2 km/h (1 Bft)
14.11.2007 17:00 2.8 C 85 % 1011.3 hPa 0.0 l/m 0.4 km/h (0 Bft) N-NW 0.00 h 0 W/m 0.6 C 2.8 C 1.0 km/h (0 Bft)
14.11.2007 18:00 2.4 C 86 % 1012.5 hPa 0.0 l/m 4.1 km/h (1 Bft) N-NW 0.00 h 0 W/m 0.3 C 1.5 C 7.7 km/h (2 Bft)
14.11.2007 19:00 1.6 C 82 % 1013.4 hPa 0.2 l/m 4.9 km/h (1 Bft) NO 0.00 h 0 W/m -1.1 C 0.5 C 9.2 km/h (2 Bft)
14.11.2007 20:00 1.0 C 76 % 1014.2 hPa 0.0 l/m 4.2 km/h (1 Bft) N-NO 0.00 h 0 W/m -2.8 C 0.3 C 8.0 km/h (2 Bft)
14.11.2007 21:00 1.2 C 75 % 1014.8 hPa 0.0 l/m 5.4 km/h (1 Bft) N-NO 0.00 h 0 W/m -2.8 C -0.2 C 10.5 km/h (2 Bft)
14.11.2007 22:00 0.7 C 75 % 1015.3 hPa 0.0 l/m 3.3 km/h (1 Bft) O 0.00 h 0 W/m -3.2 C 0.2 C 6.9 km/h (2 Bft)
14.11.2007 23:00 0.5 C 77 % 1015.7 hPa 0.0 l/m 2.1 km/h (1 Bft) NO 0.00 h 0 W/m -3.1 C 0.4 C 4.8 km/h (1 Bft)
15.11.2007 00:00 0.2 C 79 % 1015.9 hPa 0.0 l/m 0.1 km/h (0 Bft) N-NO 0.00 h 0 W/m -3.1 C 0.2 C 0.9 km/h (0 Bft)
15.11.2007 01:00 0.1 C 80 % 1016.1 hPa 0.0 l/m 0.3 km/h (0 Bft) N-NO 0.00 h 0 W/m -2.8 C 0.1 C 1.3 km/h (1 Bft)
15.11.2007 02:00 0.0 C 80 % 1016.1 hPa 0.0 l/m 0.3 km/h (0 Bft) NO 0.00 h 0 W/m -3.0 C 0.0 C 1.4 km/h (1 Bft)
15.11.2007 03:00 -0.0 C 83 % 1016.2 hPa 0.0 l/m 1.0 km/h (0 Bft) O-NO 0.00 h 0 W/m -2.6 C -0.1 C 2.5 km/h (1 Bft)
15.11.2007 04:00 -0.6 C 87 % 1016.5 hPa 0.0 l/m 0.7 km/h (0 Bft) O-SO 0.00 h 0 W/m -2.4 C -0.6 C 2.1 km/h (1 Bft)
15.11.2007 05:00 -0.8 C 85 % 1016.8 hPa 0.0 l/m 1.4 km/h (1 Bft) NO 0.00 h 0 W/m -3.0 C -1.0 C 3.5 km/h (1 Bft)
15.11.2007 06:00 -0.8 C 80 % 1017.0 hPa 0.0 l/m 1.7 km/h (1 Bft) NO 0.00 h 0 W/m -3.8 C -1.0 C 4.3 km/h (1 Bft)
15.11.2007 07:00 -0.9 C 80 % 1017.7 hPa 0.0 l/m 2.8 km/h (1 Bft) N 0.00 h 11 W/m -3.9 C -1.3 C 5.4 km/h (1 Bft)
15.11.2007 08:00 -0.5 C 79 % 1018.5 hPa 0.0 l/m 2.2 km/h (1 Bft) N-NO 0.00 h 37 W/m -3.7 C -0.9 C 4.7 km/h (1 Bft)
15.11.2007 09:00 0.5 C 73 % 1019.3 hPa 0.0 l/m 6.0 km/h (2 Bft) N-NW 0.05 h 79 W/m -3.7 C -1.1 C 11.2 km/h (2 Bft)
15.11.2007 10:00 0.9 C 72 % 1019.8 hPa 0.0 l/m 4.8 km/h (1 Bft) N 0.00 h 98 W/m -3.5 C -0.2 C 9.2 km/h (2 Bft)
15.11.2007 11:00 2.1 C 70 % 1019.8 hPa 0.0 l/m 6.6 km/h (2 Bft) N-NO 0.87 h 330 W/m -2.8 C 0.5 C 11.8 km/h (2 Bft)
15.11.2007 12:00 2.5 C 66 % 1019.8 hPa 0.0 l/m 8.4 km/h (2 Bft) N-NO 0.13 h 181 W/m -3.1 C 0.3 C 15.2 km/h (3 Bft)
15.11.2007 13:00 2.6 C 66 % 1019.7 hPa 0.0 l/m 7.0 km/h (2 Bft) N-NO 0.23 h 174 W/m -3.1 C 0.9 C 13.9 km/h (3 Bft)
15.11.2007 14:00 1.9 C 73 % 1020.1 hPa 0.0 l/m 8.2 km/h (2 Bft) N-NO 0.08 h 104 W/m -2.5 C -0.2 C 15.0 km/h (3 Bft)
15.11.2007 15:00 1.4 C 78 % 1020.4 hPa 0.0 l/m 3.5 km/h (1 Bft) NO 0.33 h 89 W/m -2.0 C 0.7 C 6.9 km/h (2 Bft)
15.11.2007 16:00 0.6 C 83 % 1021.2 hPa 0.0 l/m 4.6 km/h (1 Bft) O-SO 0.05 h 16 W/m -2.0 C -0.4 C 7.9 km/h (2 Bft)
15.11.2007 17:00 -0.2 C 86 % 1022.0 hPa 0.0 l/m 2.9 km/h (1 Bft) O-SO 0.00 h 0 W/m -2.2 C -0.5 C 4.4 km/h (1 Bft)
15.11.2007 18:00 -0.1 C 81 % 1022.6 hPa 0.0 l/m 2.0 km/h (1 Bft) O-NO 0.00 h 0 W/m -3.0 C -0.3 C 4.3 km/h (1 Bft)
15.11.2007 19:00 -0.4 C 79 % 1023.2 hPa 0.0 l/m 1.9 km/h (1 Bft) NO 0.00 h 0 W/m -3.6 C -0.5 C 4.3 km/h (1 Bft)
15.11.2007 20:00 -0.8 C 78 % 1023.6 hPa 0.0 l/m 2.2 km/h (1 Bft) N-NO 0.00 h 0 W/m -4.1 C -1.1 C 4.5 km/h (1 Bft)
15.11.2007 21:00 -1.0 C 77 % 1024.2 hPa 0.0 l/m 0.6 km/h (0 Bft) O-NO 0.00 h 0 W/m -4.5 C -1.0 C 1.7 km/h (1 Bft)
15.11.2007 22:00 -1.5 C 78 % 1024.6 hPa 0.0 l/m 0.6 km/h (0 Bft) O 0.00 h 0 W/m -4.8 C -1.5 C 1.8 km/h (1 Bft)
15.11.2007 23:00 -2.2 C 81 % 1024.5 hPa 0.0 l/m 1.4 km/h (1 Bft) O-SO 0.00 h 0 W/m -5.0 C -2.2 C 2.9 km/h (1 Bft)
16.11.2007 00:00 -3.1 C 86 % 1024.7 hPa 0.0 l/m 2.9 km/h (1 Bft) O-SO 0.00 h 0 W/m -5.1 C -3.1 C 4.1 km/h (1 Bft)
16.11.2007 01:00 -3.1 C 85 % 1024.6 hPa 0.0 l/m 2.5 km/h (1 Bft) N-NO 0.00 h 0 W/m -5.3 C -3.4 C 5.4 km/h (1 Bft)
16.11.2007 02:00 -2.9 C 81 % 1024.9 hPa 0.0 l/m 1.1 km/h (1 Bft) O 0.00 h 0 W/m -5.6 C -2.9 C 3.4 km/h (1 Bft)
16.11.2007 03:00 -3.2 C 81 % 1025.1 hPa 0.0 l/m 1.3 km/h (1 Bft) O 0.00 h 0 W/m -6.0 C -3.2 C 3.3 km/h (1 Bft)
16.11.2007 04:00 -3.3 C 81 % 1025.3 hPa 0.0 l/m 1.6 km/h (1 Bft) NO 0.00 h 0 W/m -6.1 C -3.4 C 3.9 km/h (1 Bft)
16.11.2007 05:00 -3.6 C 82 % 1025.6 hPa 0.0 l/m 1.9 km/h (1 Bft) NO 0.00 h 0 W/m -6.2 C -3.7 C 4.3 km/h (1 Bft)
16.11.2007 06:00 -3.3 C 83 % 1025.9 hPa 0.0 l/m 4.0 km/h (1 Bft) N-NO 0.00 h 0 W/m -5.8 C -4.4 C 7.4 km/h (2 Bft)
16.11.2007 07:00 -2.8 C 81 % 1026.4 hPa 0.0 l/m 3.5 km/h (1 Bft) N 0.00 h 7 W/m -5.6 C -3.6 C 6.3 km/h (2 Bft)
16.11.2007 08:00 -2.4 C 80 % 1026.9 hPa 0.0 l/m 3.2 km/h (1 Bft) N-NO 0.00 h 28 W/m -5.4 C -3.0 C 6.4 km/h (2 Bft)
16.11.2007 09:00 -1.8 C 79 % 1027.1 hPa 0.0 l/m 0.8 km/h (0 Bft) O 0.00 h 37 W/m -4.9 C -1.8 C 2.5 km/h (1 Bft)
16.11.2007 10:00 -1.0 C 77 % 1027.4 hPa 0.0 l/m 2.9 km/h (1 Bft) O 0.00 h 76 W/m -4.6 C -1.5 C 6.2 km/h (2 Bft)
16.11.2007 11:00 -0.2 C 69 % 1027.5 hPa 0.0 l/m 4.7 km/h (1 Bft) N-NO 0.00 h 128 W/m -5.1 C -1.4 C 10.2 km/h (2 Bft)
16.11.2007 12:00 0.3 C 66 % 1027.2 hPa 0.0 l/m 4.7 km/h (1 Bft) O 0.28 h 175 W/m -5.4 C -0.8 C 9.0 km/h (2 Bft)
16.11.2007 13:00 1.0 C 62 % 1027.0 hPa 0.0 l/m 6.6 km/h (2 Bft) O-SO 0.60 h 250 W/m -5.5 C -0.8 C 12.0 km/h (2 Bft)
16.11.2007 14:00 1.0 C 63 % 1026.8 hPa 0.0 l/m 6.9 km/h (2 Bft) O-SO 0.00 h 76 W/m -5.3 C -0.9 C 12.2 km/h (2 Bft)
16.11.2007 15:00 0.8 C 61 % 1027.0 hPa 0.0 l/m 5.0 km/h (1 Bft) O 0.00 h 44 W/m -5.8 C -0.5 C 10.0 km/h (2 Bft)
16.11.2007 16:00 0.4 C 61 % 1027.1 hPa 0.0 l/m 5.3 km/h (1 Bft) O-SO 0.00 h 12 W/m -6.2 C -1.0 C 10.3 km/h (2 Bft)
16.11.2007 17:00 -0.1 C 63 % 1027.6 hPa 0.0 l/m 3.9 km/h (1 Bft) NO 0.00 h 0 W/m -6.3 C -0.9 C 8.2 km/h (2 Bft)
16.11.2007 18:00 -0.1 C 62 % 1028.2 hPa 0.0 l/m 5.7 km/h (1 Bft) O-SO 0.00 h 0 W/m -6.5 C -1.7 C 11.3 km/h (2 Bft)
16.11.2007 19:00 -0.4 C 63 % 1028.3 hPa 0.0 l/m 3.2 km/h (1 Bft) NO 0.00 h 0 W/m -6.6 C -1.1 C 6.6 km/h (2 Bft)
16.11.2007 20:00 -1.1 C 64 % 1028.8 hPa 0.0 l/m 2.7 km/h (1 Bft) O-SO 0.00 h 0 W/m -6.9 C -1.4 C 5.6 km/h (1 Bft)
16.11.2007 21:00 -1.4 C 66 % 1028.9 hPa 0.0 l/m 2.9 km/h (1 Bft) O-NO 0.00 h 0 W/m -7.0 C -2.0 C 5.9 km/h (2 Bft)
16.11.2007 22:00 -1.8 C 67 % 1029.1 hPa 0.0 l/m 1.1 km/h (0 Bft) N-NO 0.00 h 0 W/m -7.1 C -1.8 C 3.1 km/h (1 Bft)
16.11.2007 23:00 -2.2 C 69 % 1028.7 hPa 0.0 l/m 0.9 km/h (0 Bft) NO 0.00 h 0 W/m -7.1 C -2.2 C 2.4 km/h (1 Bft)
17.11.2007 00:00 -2.7 C 71 % 1028.6 hPa 0.0 l/m 1.3 km/h (1 Bft) NO 0.00 h 0 W/m -7.2 C -2.7 C 3.2 km/h (1 Bft)
17.11.2007 01:00 -3.0 C 73 % 1028.4 hPa 0.0 l/m 0.7 km/h (0 Bft) NO 0.00 h 0 W/m -7.2 C -3.0 C 2.6 km/h (1 Bft)
17.11.2007 02:00 -3.5 C 75 % 1028.3 hPa 0.0 l/m 1.2 km/h (1 Bft) NO 0.00 h 0 W/m -7.3 C -3.6 C 3.2 km/h (1 Bft)
17.11.2007 03:00 -4.5 C 80 % 1027.9 hPa 0.0 l/m 3.7 km/h (1 Bft) O 0.00 h 0 W/m -7.5 C -5.6 C 5.0 km/h (1 Bft)
17.11.2007 04:00 -5.3 C 84 % 1027.8 hPa 0.0 l/m 3.8 km/h (1 Bft) O 0.00 h 0 W/m -7.6 C -5.7 C 5.2 km/h (1 Bft)
17.11.2007 05:00 -5.5 C 85 % 1027.8 hPa 0.0 l/m 3.2 km/h (1 Bft) O 0.00 h 0 W/m -7.6 C -5.8 C 4.6 km/h (1 Bft)
17.11.2007 06:00 -5.7 C 85 % 1027.9 hPa 0.0 l/m 5.8 km/h (1 Bft) O-SO 0.00 h 0 W/m -7.8 C -8.1 C 7.0 km/h (2 Bft)
17.11.2007 07:00 -6.0 C 87 % 1028.0 hPa 0.0 l/m 5.2 km/h (1 Bft) O-SO 0.13 h 12 W/m -7.9 C -8.2 C 6.6 km/h (2 Bft)
17.11.2007 08:00 -4.7 C 87 % 1028.1 hPa 0.0 l/m 3.5 km/h (1 Bft) SO 0.03 h 54 W/m -6.6 C -5.3 C 5.3 km/h (1 Bft)
17.11.2007 09:00 -2.0 C 76 % 1027.7 hPa 0.0 l/m 1.5 km/h (1 Bft) SO 0.93 h 195 W/m -5.6 C -2.4 C 2.8 km/h (1 Bft)
17.11.2007 10:00 -0.4 C 70 % 1027.2 hPa 0.0 l/m 1.6 km/h (1 Bft) SO 0.37 h 147 W/m -5.2 C -0.4 C 3.4 km/h (1 Bft)
17.11.2007 11:00 0.9 C 67 % 1026.7 hPa 0.0 l/m 6.3 km/h (2 Bft) SO 1.00 h 337 W/m -4.5 C -0.9 C 9.6 km/h (2 Bft)
17.11.2007 12:00 1.9 C 63 % 1025.9 hPa 0.0 l/m 5.2 km/h (1 Bft) O-SO 1.00 h 348 W/m -4.4 C 0.7 C 8.4 km/h (2 Bft)
17.11.2007 13:00 3.2 C 58 % 1025.2 hPa 0.0 l/m 4.6 km/h (1 Bft) O-SO 1.00 h 316 W/m -4.2 C 2.3 C 7.8 km/h (2 Bft)
17.11.2007 14:00 3.9 C 54 % 1024.5 hPa 0.0 l/m 4.1 km/h (1 Bft) O-SO 0.98 h 236 W/m -4.5 C 3.2 C 7.6 km/h (2 Bft)
17.11.2007 15:00 3.8 C 55 % 1024.2 hPa 0.0 l/m 3.4 km/h (1 Bft) O-SO 0.92 h 123 W/m -4.4 C 3.4 C 5.6 km/h (1 Bft)
17.11.2007 16:00 3.4 C 57 % 1024.2 hPa 0.0 l/m 1.7 km/h (1 Bft) O 0.17 h 27 W/m -4.4 C 3.3 C 3.6 km/h (1 Bft)
17.11.2007 17:00 2.5 C 64 % 1024.0 hPa 0.0 l/m 2.9 km/h (1 Bft) O-SO 0.00 h 0 W/m -3.6 C 2.1 C 5.4 km/h (1 Bft)
17.11.2007 18:00 0.5 C 70 % 1024.4 hPa 0.0 l/m 3.1 km/h (1 Bft) O-SO 0.00 h 0 W/m -4.4 C 0.3 C 4.6 km/h (1 Bft)
17.11.2007 19:00 -0.4 C 77 % 1024.5 hPa 0.0 l/m 1.1 km/h (0 Bft) O-SO 0.00 h 0 W/m -3.9 C -0.5 C 1.7 km/h (1 Bft)
17.11.2007 20:00 -1.3 C 83 % 1024.0 hPa 0.0 l/m 2.1 km/h (1 Bft) O-SO 0.00 h 0 W/m -3.9 C -1.3 C 3.3 km/h (1 Bft)
17.11.2007 21:00 -2.1 C 85 % 1023.4 hPa 0.0 l/m 2.3 km/h (1 Bft) S-SO 0.00 h 0 W/m -4.2 C -2.3 C 3.5 km/h (1 Bft)
17.11.2007 22:00 -2.3 C 86 % 1023.0 hPa 0.0 l/m 0.3 km/h (0 Bft) O-SO 0.00 h 0 W/m -4.2 C -2.3 C 1.1 km/h (1 Bft)
17.11.2007 23:00 -2.3 C 88 % 1022.2 hPa 0.0 l/m 0.2 km/h (0 Bft) O-SO 0.00 h 0 W/m -4.1 C -2.3 C 0.7 km/h (0 Bft)
18.11.2007 00:00 -2.2 C 88 % 1021.6 hPa 0.0 l/m 0.0 km/h (0 Bft) N 0.00 h 0 W/m -4.0 C -2.2 C 0.1 km/h (0 Bft)
18.11.2007 01:00 -2.6 C 90 % 1021.0 hPa 0.0 l/m 0.9 km/h (0 Bft) O-SO 0.00 h 0 W/m -4.0 C -2.6 C 1.2 km/h (1 Bft)
18.11.2007 02:00 -3.4 C 90 % 1020.4 hPa 0.0 l/m 3.6 km/h (1 Bft) O-SO 0.00 h 0 W/m -4.8 C -3.9 C 5.0 km/h (1 Bft)
18.11.2007 03:00 -3.7 C 89 % 1019.9 hPa 0.0 l/m 3.5 km/h (1 Bft) SO 0.00 h 0 W/m -5.2 C -4.6 C 5.0 km/h (1 Bft)
18.11.2007 04:00 -3.9 C 90 % 1019.2 hPa 0.0 l/m 0.9 km/h (0 Bft) SO 0.00 h 0 W/m -5.3 C -3.9 C 1.6 km/h (1 Bft)
18.11.2007 05:00 -4.3 C 90 % 1018.8 hPa 0.0 l/m 2.6 km/h (1 Bft) SO 0.00 h 0 W/m -5.7 C -5.1 C 3.7 km/h (1 Bft)
18.11.2007 06:00 -4.2 C 91 % 1018.3 hPa 0.0 l/m 1.2 km/h (1 Bft) SO 0.00 h 0 W/m -5.5 C -4.2 C 1.9 km/h (1 Bft)
18.11.2007 07:00 -4.4 C 92 % 1018.1 hPa 0.0 l/m 2.3 km/h (1 Bft) S-SO 0.03 h 9 W/m -5.5 C -4.4 C 3.8 km/h (1 Bft)
18.11.2007 08:00 -4.2 C 91 % 1018.0 hPa 0.0 l/m 0.7 km/h (0 Bft) S-SO 0.00 h 33 W/m -5.4 C -4.2 C 1.4 km/h (1 Bft)
18.11.2007 09:00 -2.5 C 88 % 1017.3 hPa 0.0 l/m 1.7 km/h (1 Bft) S 0.93 h 157 W/m -4.2 C -2.5 C 3.8 km/h (1 Bft)
18.11.2007 10:00 -0.9 C 84 % 1016.6 hPa 0.0 l/m 5.1 km/h (1 Bft) S-SO 0.33 h 151 W/m -3.3 C -2.4 C 8.5 km/h (2 Bft)
18.11.2007 11:00 0.0 C 79 % 1015.9 hPa 0.0 l/m 6.9 km/h (2 Bft) S-SO 1.00 h 308 W/m -3.2 C -2.2 C 11.8 km/h (2 Bft)
18.11.2007 12:00 1.4 C 73 % 1014.6 hPa 0.0 l/m 5.5 km/h (1 Bft) SO 1.00 h 331 W/m -2.9 C 0.1 C 8.9 km/h (2 Bft)
18.11.2007 13:00 2.4 C 70 % 1013.7 hPa 0.0 l/m 6.7 km/h (2 Bft) SO 1.00 h 297 W/m -2.5 C 0.8 C 10.2 km/h (2 Bft)
18.11.2007 14:00 2.6 C 69 % 1013.0 hPa 0.0 l/m 4.3 km/h (1 Bft) S-SO 1.00 h 219 W/m -2.5 C 2.0 C 7.8 km/h (2 Bft)
18.11.2007 15:00 1.8 C 70 % 1012.5 hPa 0.0 l/m 4.4 km/h (1 Bft) S 1.00 h 117 W/m -3.1 C 1.0 C 7.2 km/h (2 Bft)
18.11.2007 16:00 0.3 C 74 % 1012.2 hPa 0.0 l/m 2.3 km/h (1 Bft) SO 0.17 h 25 W/m -3.7 C 0.1 C 4.6 km/h (1 Bft)
18.11.2007 17:00 -0.9 C 79 % 1012.4 hPa 0.0 l/m 1.0 km/h (0 Bft) S 0.00 h 0 W/m -4.1 C -0.9 C 3.3 km/h (1 Bft)
18.11.2007 18:00 -1.6 C 81 % 1012.5 hPa 0.0 l/m 0.6 km/h (0 Bft) SO 0.00 h 0 W/m -4.4 C -1.6 C 1.7 km/h (1 Bft)
18.11.2007 19:00 -2.2 C 82 % 1012.3 hPa 0.0 l/m 1.6 km/h (1 Bft) SO 0.00 h 0 W/m -4.8 C -2.3 C 3.0 km/h (1 Bft)
18.11.2007 20:00 -3.0 C 85 % 1011.9 hPa 0.0 l/m 2.4 km/h (1 Bft) SO 0.00 h 0 W/m -5.1 C -3.3 C 3.5 km/h (1 Bft)
18.11.2007 21:00 -3.3 C 88 % 1011.6 hPa 0.0 l/m 2.6 km/h (1 Bft) O-SO 0.00 h 0 W/m -5.1 C -3.4 C 4.0 km/h (1 Bft)
18.11.2007 22:00 -4.2 C 90 % 1011.3 hPa 0.0 l/m 2.5 km/h (1 Bft) O-SO 0.00 h 0 W/m -5.6 C -4.3 C 3.8 km/h (1 Bft)
18.11.2007 23:00 -4.8 C 90 % 1011.1 hPa 0.0 l/m 2.6 km/h (1 Bft) O 0.00 h 0 W/m -6.1 C -5.2 C 3.4 km/h (1 Bft)
Min-Datum _ 17.11.07 12.11.07 14.11.07 - 12.11.07 - - - 17.11.07 17.11.07 12.11.07
_ Min-Zeit 07:06 13:11 06:00 - 01:16 - - - 07:06 06:31 02:10
Minimum _ -6.1 C 46 % 1003.8 hPa - 0.0 km/h (0 Bft) - - - -8.0 C -9.9 C 0.0 km/h (0 Bft)
Max-Datum _ 12.11.07 14.11.07 16.11.07 12.11.07 12.11.07 - 12.11.07 15.11.07 12.11.07 12.11.07 12.11.07
_ Max-Zeit 12:20 10:43 22:00 00:00 06:06 - 08:50 12:04 00:00 12:16 00:15
Maximum _ 7.9 C 98 % 1029.2 hPa 2.0 l/m 21.4 km/h
W (4 Bft)
- 0.02 h 548 W/m 5.6 C 7.8 C 33.0 km/h
W (5 Bft)
Durchschnitt _ 0.7 C 80 % 1019.2 hPa #11.0 l/m 3.5 km/h (1 Bft) O-SO #24:01 h 133 W/m -2.5 C 0.1 C 6.3 km/h (2 Bft)
© Kaiko 2007